sensor_id;sensor_type;location;lat;lon;timestamp;temperature;humidity
74081;SHT31;62438;52.228;6.864;2023-04-07T00:00:50;7.03;99.95
74081;SHT31;62438;52.228;6.864;2023-04-07T00:02:50;7.06;99.99
74081;SHT31;62438;52.228;6.864;2023-04-07T00:04:51;7.00;99.99
74081;SHT31;62438;52.228;6.864;2023-04-07T00:06:51;7.00;99.99
74081;SHT31;62438;52.228;6.864;2023-04-07T00:08:52;6.96;99.99
74081;SHT31;62438;52.228;6.864;2023-04-07T00:10:52;7.02;99.99
74081;SHT31;62438;52.228;6.864;2023-04-07T00:12:52;7.03;99.99
74081;SHT31;62438;52.228;6.864;2023-04-07T00:14:53;7.00;99.99
74081;SHT31;62438;52.228;6.864;2023-04-07T00:16:53;6.99;99.99
74081;SHT31;62438;52.228;6.864;2023-04-07T00:18:54;7.02;99.99
74081;SHT31;62438;52.228;6.864;2023-04-07T00:20:54;6.99;99.99
74081;SHT31;62438;52.228;6.864;2023-04-07T00:22:54;6.98;99.99
74081;SHT31;62438;52.228;6.864;2023-04-07T00:24:55;6.99;99.99
74081;SHT31;62438;52.228;6.864;2023-04-07T00:26:55;7.00;99.99
74081;SHT31;62438;52.228;6.864;2023-04-07T00:28:57;6.98;99.99
74081;SHT31;62438;52.228;6.864;2023-04-07T00:30:57;6.96;99.99
74081;SHT31;62438;52.228;6.864;2023-04-07T00:32:57;6.95;99.99
74081;SHT31;62438;52.228;6.864;2023-04-07T00:34:58;7.00;99.99
74081;SHT31;62438;52.228;6.864;2023-04-07T00:36:58;6.99;99.99
74081;SHT31;62438;52.228;6.864;2023-04-07T00:38:59;6.95;99.99
74081;SHT31;62438;52.228;6.864;2023-04-07T00:40:59;7.02;99.99
74081;SHT31;62438;52.228;6.864;2023-04-07T00:43:00;7.00;99.99
74081;SHT31;62438;52.228;6.864;2023-04-07T00:45:01;7.02;99.99
74081;SHT31;62438;52.228;6.864;2023-04-07T00:47:01;6.95;99.99
74081;SHT31;62438;52.228;6.864;2023-04-07T00:49:02;6.93;99.99
74081;SHT31;62438;52.228;6.864;2023-04-07T00:51:02;6.99;99.99
74081;SHT31;62438;52.228;6.864;2023-04-07T00:53:04;6.99;99.99
74081;SHT31;62438;52.228;6.864;2023-04-07T00:55:05;7.05;99.99
74081;SHT31;62438;52.228;6.864;2023-04-07T00:57:05;6.95;99.99
74081;SHT31;62438;52.228;6.864;2023-04-07T00:59:06;6.96;99.99
74081;SHT31;62438;52.228;6.864;2023-04-07T01:01:08;6.95;99.99
74081;SHT31;62438;52.228;6.864;2023-04-07T01:03:18;6.99;99.99
74081;SHT31;62438;52.228;6.864;2023-04-07T01:05:28;6.96;99.99
74081;SHT31;62438;52.228;6.864;2023-04-07T01:07:36;6.93;99.99
74081;SHT31;62438;52.228;6.864;2023-04-07T01:09:44;6.91;99.99
74081;SHT31;62438;52.228;6.864;2023-04-07T01:13:49;6.95;99.99
74081;SHT31;62438;52.228;6.864;2023-04-07T01:15:51;6.96;99.99
74081;SHT31;62438;52.228;6.864;2023-04-07T01:18:05;6.98;99.99
74081;SHT31;62438;52.228;6.864;2023-04-07T01:20:11;6.99;99.99
74081;SHT31;62438;52.228;6.864;2023-04-07T01:22:15;7.02;99.99
74081;SHT31;62438;52.228;6.864;2023-04-07T01:27:04;6.95;99.99
74081;SHT31;62438;52.228;6.864;2023-04-07T01:29:33;6.98;99.99
74081;SHT31;62438;52.228;6.864;2023-04-07T01:31:36;7.02;99.99
74081;SHT31;62438;52.228;6.864;2023-04-07T01:33:39;6.96;99.99
74081;SHT31;62438;52.228;6.864;2023-04-07T01:35:44;7.02;99.99
74081;SHT31;62438;52.228;6.864;2023-04-07T01:37:49;6.98;99.99
74081;SHT31;62438;52.228;6.864;2023-04-07T01:39:50;7.02;99.99
74081;SHT31;62438;52.228;6.864;2023-04-07T01:41:51;6.99;99.99
74081;SHT31;62438;52.228;6.864;2023-04-07T01:43:53;6.93;99.99
74081;SHT31;62438;52.228;6.864;2023-04-07T01:45:55;6.93;99.99
74081;SHT31;62438;52.228;6.864;2023-04-07T01:47:57;6.95;99.99
74081;SHT31;62438;52.228;6.864;2023-04-07T01:49:59;6.99;99.99
74081;SHT31;62438;52.228;6.864;2023-04-07T01:52:01;6.99;99.99
74081;SHT31;62438;52.228;6.864;2023-04-07T01:54:03;6.98;99.99
74081;SHT31;62438;52.228;6.864;2023-04-07T01:56:04;6.99;99.99
74081;SHT31;62438;52.228;6.864;2023-04-07T01:58:06;6.98;99.99
74081;SHT31;62438;52.228;6.864;2023-04-07T02:00:07;6.99;99.99
74081;SHT31;62438;52.228;6.864;2023-04-07T02:02:07;6.98;99.99
74081;SHT31;62438;52.228;6.864;2023-04-07T02:04:10;6.99;99.99
74081;SHT31;62438;52.228;6.864;2023-04-07T02:06:17;6.99;99.99
74081;SHT31;62438;52.228;6.864;2023-04-07T02:08:20;6.95;99.99
74081;SHT31;62438;52.228;6.864;2023-04-07T02:10:23;7.00;99.99
74081;SHT31;62438;52.228;6.864;2023-04-07T02:12:26;6.98;99.99
74081;SHT31;62438;52.228;6.864;2023-04-07T02:14:27;7.06;99.99
74081;SHT31;62438;52.228;6.864;2023-04-07T02:16:28;7.03;99.99
74081;SHT31;62438;52.228;6.864;2023-04-07T02:18:30;7.07;99.99
74081;SHT31;62438;52.228;6.864;2023-04-07T02:20:33;7.03;99.99
74081;SHT31;62438;52.228;6.864;2023-04-07T02:22:37;7.02;99.99
74081;SHT31;62438;52.228;6.864;2023-04-07T02:24:40;7.02;99.99
74081;SHT31;62438;52.228;6.864;2023-04-07T02:26:41;7.05;99.99
74081;SHT31;62438;52.228;6.864;2023-04-07T02:28:42;6.98;99.99
74081;SHT31;62438;52.228;6.864;2023-04-07T02:30:42;7.03;99.99
74081;SHT31;62438;52.228;6.864;2023-04-07T02:32:43;7.00;99.99
74081;SHT31;62438;52.228;6.864;2023-04-07T02:34:43;6.98;99.99
74081;SHT31;62438;52.228;6.864;2023-04-07T02:36:44;7.02;99.99
74081;SHT31;62438;52.228;6.864;2023-04-07T02:38:44;7.03;99.99
74081;SHT31;62438;52.228;6.864;2023-04-07T02:40:45;6.98;99.99
74081;SHT31;62438;52.228;6.864;2023-04-07T02:42:45;7.06;99.99
74081;SHT31;62438;52.228;6.864;2023-04-07T02:44:46;7.02;99.99
74081;SHT31;62438;52.228;6.864;2023-04-07T02:46:46;6.99;99.99
74081;SHT31;62438;52.228;6.864;2023-04-07T02:48:46;7.02;99.99
74081;SHT31;62438;52.228;6.864;2023-04-07T02:50:47;6.98;99.99
74081;SHT31;62438;52.228;6.864;2023-04-07T02:52:47;6.96;99.99
74081;SHT31;62438;52.228;6.864;2023-04-07T02:54:48;7.05;99.99
74081;SHT31;62438;52.228;6.864;2023-04-07T02:56:48;6.99;99.99
74081;SHT31;62438;52.228;6.864;2023-04-07T02:58:48;7.05;99.99
74081;SHT31;62438;52.228;6.864;2023-04-07T03:00:49;7.12;99.99
74081;SHT31;62438;52.228;6.864;2023-04-07T03:02:49;7.03;99.99
74081;SHT31;62438;52.228;6.864;2023-04-07T03:04:51;7.06;99.99
74081;SHT31;62438;52.228;6.864;2023-04-07T03:06:52;7.00;99.99
74081;SHT31;62438;52.228;6.864;2023-04-07T03:08:52;7.05;99.99
74081;SHT31;62438;52.228;6.864;2023-04-07T03:10:53;7.00;99.99
74081;SHT31;62438;52.228;6.864;2023-04-07T03:12:54;6.99;99.99
74081;SHT31;62438;52.228;6.864;2023-04-07T03:14:54;7.00;99.99
74081;SHT31;62438;52.228;6.864;2023-04-07T03:16:55;6.98;99.99
74081;SHT31;62438;52.228;6.864;2023-04-07T03:18:55;7.05;99.99
74081;SHT31;62438;52.228;6.864;2023-04-07T03:20:56;7.05;99.99
74081;SHT31;62438;52.228;6.864;2023-04-07T03:22:56;7.03;99.99
74081;SHT31;62438;52.228;6.864;2023-04-07T03:24:57;7.02;99.99
74081;SHT31;62438;52.228;6.864;2023-04-07T03:26:57;7.02;99.99
74081;SHT31;62438;52.228;6.864;2023-04-07T03:28:57;7.10;99.99
74081;SHT31;62438;52.228;6.864;2023-04-07T03:30:58;7.05;99.99
74081;SHT31;62438;52.228;6.864;2023-04-07T03:32:59;7.00;99.99
74081;SHT31;62438;52.228;6.864;2023-04-07T03:34:59;6.99;99.99
74081;SHT31;62438;52.228;6.864;2023-04-07T03:37:00;6.99;99.99
74081;SHT31;62438;52.228;6.864;2023-04-07T03:39:00;7.02;99.99
74081;SHT31;62438;52.228;6.864;2023-04-07T03:41:00;7.03;99.99
74081;SHT31;62438;52.228;6.864;2023-04-07T03:43:01;7.02;99.99
74081;SHT31;62438;52.228;6.864;2023-04-07T03:45:01;7.02;99.99
74081;SHT31;62438;52.228;6.864;2023-04-07T03:47:02;7.07;99.99
74081;SHT31;62438;52.228;6.864;2023-04-07T03:49:02;7.09;99.99
74081;SHT31;62438;52.228;6.864;2023-04-07T03:51:02;7.06;99.99
74081;SHT31;62438;52.228;6.864;2023-04-07T03:53:03;7.02;99.99
74081;SHT31;62438;52.228;6.864;2023-04-07T03:55:04;7.09;99.99
74081;SHT31;62438;52.228;6.864;2023-04-07T03:57:05;7.05;99.99
74081;SHT31;62438;52.228;6.864;2023-04-07T03:59:05;7.07;99.99
74081;SHT31;62438;52.228;6.864;2023-04-07T04:01:06;6.99;99.99
74081;SHT31;62438;52.228;6.864;2023-04-07T04:03:07;7.00;99.99
74081;SHT31;62438;52.228;6.864;2023-04-07T04:05:08;6.96;99.99
74081;SHT31;62438;52.228;6.864;2023-04-07T04:07:08;6.98;99.99
74081;SHT31;62438;52.228;6.864;2023-04-07T04:09:09;6.93;99.99
74081;SHT31;62438;52.228;6.864;2023-04-07T04:11:09;6.99;99.99
74081;SHT31;62438;52.228;6.864;2023-04-07T04:13:10;7.02;99.99
74081;SHT31;62438;52.228;6.864;2023-04-07T04:15:10;6.95;99.99
74081;SHT31;62438;52.228;6.864;2023-04-07T04:17:11;6.96;99.99
74081;SHT31;62438;52.228;6.864;2023-04-07T04:19:11;6.93;99.99
74081;SHT31;62438;52.228;6.864;2023-04-07T04:21:11;6.99;99.99
74081;SHT31;62438;52.228;6.864;2023-04-07T04:23:12;7.02;99.99
74081;SHT31;62438;52.228;6.864;2023-04-07T04:25:13;6.99;99.99
74081;SHT31;62438;52.228;6.864;2023-04-07T04:27:14;6.96;99.99
74081;SHT31;62438;52.228;6.864;2023-04-07T04:29:15;6.98;99.99
74081;SHT31;62438;52.228;6.864;2023-04-07T04:31:15;6.98;99.99
74081;SHT31;62438;52.228;6.864;2023-04-07T04:33:15;6.98;99.99
74081;SHT31;62438;52.228;6.864;2023-04-07T04:35:16;6.96;99.99
74081;SHT31;62438;52.228;6.864;2023-04-07T04:37:16;6.98;99.99
74081;SHT31;62438;52.228;6.864;2023-04-07T04:39:16;6.99;99.99
74081;SHT31;62438;52.228;6.864;2023-04-07T04:41:17;6.99;99.99
74081;SHT31;62438;52.228;6.864;2023-04-07T04:43:17;6.95;99.99
74081;SHT31;62438;52.228;6.864;2023-04-07T04:45:18;6.96;99.99
74081;SHT31;62438;52.228;6.864;2023-04-07T04:47:18;7.03;99.99
74081;SHT31;62438;52.228;6.864;2023-04-07T04:49:19;6.98;99.99
74081;SHT31;62438;52.228;6.864;2023-04-07T04:51:19;6.96;99.99
74081;SHT31;62438;52.228;6.864;2023-04-07T04:53:19;6.95;99.99
74081;SHT31;62438;52.228;6.864;2023-04-07T04:55:20;6.98;99.99
74081;SHT31;62438;52.228;6.864;2023-04-07T04:57:20;6.96;99.99
74081;SHT31;62438;52.228;6.864;2023-04-07T04:59:21;7.00;99.99
74081;SHT31;62438;52.228;6.864;2023-04-07T05:01:21;6.93;99.99
74081;SHT31;62438;52.228;6.864;2023-04-07T05:03:22;6.95;99.99
74081;SHT31;62438;52.228;6.864;2023-04-07T05:05:23;6.95;99.99
74081;SHT31;62438;52.228;6.864;2023-04-07T05:07:24;6.92;99.99
74081;SHT31;62438;52.228;6.864;2023-04-07T05:09:25;6.95;99.99
74081;SHT31;62438;52.228;6.864;2023-04-07T05:11:26;7.02;99.99
74081;SHT31;62438;52.228;6.864;2023-04-07T05:13:26;6.93;99.99
74081;SHT31;62438;52.228;6.864;2023-04-07T05:15:29;6.93;99.99
74081;SHT31;62438;52.228;6.864;2023-04-07T05:17:30;6.95;99.99
74081;SHT31;62438;52.228;6.864;2023-04-07T05:19:30;6.91;99.99
74081;SHT31;62438;52.228;6.864;2023-04-07T05:21:31;6.91;99.99
74081;SHT31;62438;52.228;6.864;2023-04-07T05:23:32;6.95;99.99
74081;SHT31;62438;52.228;6.864;2023-04-07T05:25:32;6.95;99.99
74081;SHT31;62438;52.228;6.864;2023-04-07T05:27:33;6.93;99.99
74081;SHT31;62438;52.228;6.864;2023-04-07T05:29:33;6.96;99.99
74081;SHT31;62438;52.228;6.864;2023-04-07T05:31:33;6.99;99.99
74081;SHT31;62438;52.228;6.864;2023-04-07T05:33:36;6.93;99.99
74081;SHT31;62438;52.228;6.864;2023-04-07T05:35:36;6.98;99.99
74081;SHT31;62438;52.228;6.864;2023-04-07T05:37:37;6.96;99.99
74081;SHT31;62438;52.228;6.864;2023-04-07T05:39:37;7.02;99.99
74081;SHT31;62438;52.228;6.864;2023-04-07T05:41:38;7.03;99.99
74081;SHT31;62438;52.228;6.864;2023-04-07T05:43:38;7.00;99.99
74081;SHT31;62438;52.228;6.864;2023-04-07T05:45:41;7.03;99.99
74081;SHT31;62438;52.228;6.864;2023-04-07T05:47:42;7.00;99.99
74081;SHT31;62438;52.228;6.864;2023-04-07T05:49:42;6.95;99.99
74081;SHT31;62438;52.228;6.864;2023-04-07T05:51:46;7.00;99.99
74081;SHT31;62438;52.228;6.864;2023-04-07T05:53:46;7.07;99.99
74081;SHT31;62438;52.228;6.864;2023-04-07T05:55:47;7.00;99.99
74081;SHT31;62438;52.228;6.864;2023-04-07T05:57:47;7.00;99.99
74081;SHT31;62438;52.228;6.864;2023-04-07T05:59:48;7.03;99.99
74081;SHT31;62438;52.228;6.864;2023-04-07T06:01:49;7.05;99.99
74081;SHT31;62438;52.228;6.864;2023-04-07T06:03:49;7.10;99.99
74081;SHT31;62438;52.228;6.864;2023-04-07T06:05:49;7.15;99.99
74081;SHT31;62438;52.228;6.864;2023-04-07T06:07:50;7.20;99.99
74081;SHT31;62438;52.228;6.864;2023-04-07T06:09:50;7.19;99.99
74081;SHT31;62438;52.228;6.864;2023-04-07T06:11:51;7.12;99.99
74081;SHT31;62438;52.228;6.864;2023-04-07T06:13:51;7.19;99.99
74081;SHT31;62438;52.228;6.864;2023-04-07T06:15:56;7.10;99.99
74081;SHT31;62438;52.228;6.864;2023-04-07T06:17:56;7.07;99.99
74081;SHT31;62438;52.228;6.864;2023-04-07T06:19:57;7.13;99.99
74081;SHT31;62438;52.228;6.864;2023-04-07T06:21:57;7.16;99.99
74081;SHT31;62438;52.228;6.864;2023-04-07T06:23:58;7.17;99.99
74081;SHT31;62438;52.228;6.864;2023-04-07T06:25:58;7.27;99.99
74081;SHT31;62438;52.228;6.864;2023-04-07T06:27:59;7.30;99.99
74081;SHT31;62438;52.228;6.864;2023-04-07T06:30:00;7.23;99.99
74081;SHT31;62438;52.228;6.864;2023-04-07T06:32:00;7.20;99.99
74081;SHT31;62438;52.228;6.864;2023-04-07T06:34:01;7.23;99.99
74081;SHT31;62438;52.228;6.864;2023-04-07T06:36:02;7.33;99.99
74081;SHT31;62438;52.228;6.864;2023-04-07T06:38:02;7.36;99.99
74081;SHT31;62438;52.228;6.864;2023-04-07T06:40:03;7.43;99.99
74081;SHT31;62438;52.228;6.864;2023-04-07T06:42:03;7.51;99.99
74081;SHT31;62438;52.228;6.864;2023-04-07T06:44:06;7.58;99.99
74081;SHT31;62438;52.228;6.864;2023-04-07T06:46:08;7.71;99.99
74081;SHT31;62438;52.228;6.864;2023-04-07T06:48:08;7.77;99.77
74081;SHT31;62438;52.228;6.864;2023-04-07T06:50:10;7.64;99.94
74081;SHT31;62438;52.228;6.864;2023-04-07T06:52:10;7.65;99.99
74081;SHT31;62438;52.228;6.864;2023-04-07T06:54:11;7.78;99.99
74081;SHT31;62438;52.228;6.864;2023-04-07T06:56:13;7.73;99.58
74081;SHT31;62438;52.228;6.864;2023-04-07T06:58:13;7.77;99.76
74081;SHT31;62438;52.228;6.864;2023-04-07T07:00:14;7.74;99.19
74081;SHT31;62438;52.228;6.864;2023-04-07T07:02:14;7.82;99.15
74081;SHT31;62438;52.228;6.864;2023-04-07T07:04:15;7.82;98.22
74081;SHT31;62438;52.228;6.864;2023-04-07T07:06:15;7.92;99.50
74081;SHT31;62438;52.228;6.864;2023-04-07T07:08:16;7.88;99.30
74081;SHT31;62438;52.228;6.864;2023-04-07T07:10:16;7.85;99.89
74081;SHT31;62438;52.228;6.864;2023-04-07T07:12:17;7.91;99.55
74081;SHT31;62438;52.228;6.864;2023-04-07T07:14:17;7.82;99.93
74081;SHT31;62438;52.228;6.864;2023-04-07T07:16:18;7.75;99.33
74081;SHT31;62438;52.228;6.864;2023-04-07T07:18:18;7.86;99.89
74081;SHT31;62438;52.228;6.864;2023-04-07T07:20:19;7.75;99.62
74081;SHT31;62438;52.228;6.864;2023-04-07T07:22:19;7.65;99.52
74081;SHT31;62438;52.228;6.864;2023-04-07T07:24:19;7.71;99.72
74081;SHT31;62438;52.228;6.864;2023-04-07T07:26:20;7.75;99.98
74081;SHT31;62438;52.228;6.864;2023-04-07T07:28:21;7.78;99.99
74081;SHT31;62438;52.228;6.864;2023-04-07T07:30:22;7.75;99.75
74081;SHT31;62438;52.228;6.864;2023-04-07T07:32:22;7.82;99.84
74081;SHT31;62438;52.228;6.864;2023-04-07T07:34:23;7.91;99.78
74081;SHT31;62438;52.228;6.864;2023-04-07T07:36:23;7.86;99.31
74081;SHT31;62438;52.228;6.864;2023-04-07T07:38:24;7.91;98.82
74081;SHT31;62438;52.228;6.864;2023-04-07T07:40:26;7.89;99.66
74081;SHT31;62438;52.228;6.864;2023-04-07T07:42:27;8.03;98.97
74081;SHT31;62438;52.228;6.864;2023-04-07T07:44:27;8.02;99.64
74081;SHT31;62438;52.228;6.864;2023-04-07T07:46:27;7.96;99.32
74081;SHT31;62438;52.228;6.864;2023-04-07T07:48:28;7.98;99.96
74081;SHT31;62438;52.228;6.864;2023-04-07T07:50:28;8.05;98.49
74081;SHT31;62438;52.228;6.864;2023-04-07T07:52:29;8.02;98.62
74081;SHT31;62438;52.228;6.864;2023-04-07T07:54:29;8.09;99.07
74081;SHT31;62438;52.228;6.864;2023-04-07T07:56:30;8.02;98.90
74081;SHT31;62438;52.228;6.864;2023-04-07T07:58:30;7.94;98.66
74081;SHT31;62438;52.228;6.864;2023-04-07T08:00:31;8.06;98.79
74081;SHT31;62438;52.228;6.864;2023-04-07T08:02:31;8.06;98.39
74081;SHT31;62438;52.228;6.864;2023-04-07T08:04:34;8.02;98.58
74081;SHT31;62438;52.228;6.864;2023-04-07T08:06:35;8.12;98.81
74081;SHT31;62438;52.228;6.864;2023-04-07T08:08:36;8.29;97.85
74081;SHT31;62438;52.228;6.864;2023-04-07T08:10:37;8.28;98.07
74081;SHT31;62438;52.228;6.864;2023-04-07T08:12:37;8.22;98.45
74081;SHT31;62438;52.228;6.864;2023-04-07T08:14:38;8.21;98.66
74081;SHT31;62438;52.228;6.864;2023-04-07T08:16:39;8.19;98.73
74081;SHT31;62438;52.228;6.864;2023-04-07T08:18:39;8.16;97.89
74081;SHT31;62438;52.228;6.864;2023-04-07T08:20:40;8.17;98.24
74081;SHT31;62438;52.228;6.864;2023-04-07T08:22:40;8.06;97.62
74081;SHT31;62438;52.228;6.864;2023-04-07T08:24:42;8.22;98.19
74081;SHT31;62438;52.228;6.864;2023-04-07T08:26:42;8.25;97.50
74081;SHT31;62438;52.228;6.864;2023-04-07T08:28:44;8.42;97.31
74081;SHT31;62438;52.228;6.864;2023-04-07T08:30:45;8.37;97.01
74081;SHT31;62438;52.228;6.864;2023-04-07T08:32:45;8.43;96.92
74081;SHT31;62438;52.228;6.864;2023-04-07T08:34:45;8.44;97.75
74081;SHT31;62438;52.228;6.864;2023-04-07T08:36:46;8.53;97.58
74081;SHT31;62438;52.228;6.864;2023-04-07T08:38:46;8.54;97.68
74081;SHT31;62438;52.228;6.864;2023-04-07T08:40:49;8.52;96.55
74081;SHT31;62438;52.228;6.864;2023-04-07T08:42:53;8.37;97.15
74081;SHT31;62438;52.228;6.864;2023-04-07T08:44:55;8.28;96.94
74081;SHT31;62438;52.228;6.864;2023-04-07T08:46:58;8.35;97.86
74081;SHT31;62438;52.228;6.864;2023-04-07T08:49:00;8.49;98.44
74081;SHT31;62438;52.228;6.864;2023-04-07T08:51:04;8.43;96.82
74081;SHT31;62438;52.228;6.864;2023-04-07T08:53:06;8.53;96.92
74081;SHT31;62438;52.228;6.864;2023-04-07T08:55:09;8.44;96.85
74081;SHT31;62438;52.228;6.864;2023-04-07T08:57:09;8.56;96.82
74081;SHT31;62438;52.228;6.864;2023-04-07T08:59:12;8.49;95.74
74081;SHT31;62438;52.228;6.864;2023-04-07T09:01:13;8.59;97.16
74081;SHT31;62438;52.228;6.864;2023-04-07T09:03:17;8.50;96.77
74081;SHT31;62438;52.228;6.864;2023-04-07T09:05:22;8.54;96.94
74081;SHT31;62438;52.228;6.864;2023-04-07T09:07:24;8.50;97.34
74081;SHT31;62438;52.228;6.864;2023-04-07T09:09:24;8.57;97.09
74081;SHT31;62438;52.228;6.864;2023-04-07T09:11:26;8.75;95.35
74081;SHT31;62438;52.228;6.864;2023-04-07T09:13:26;8.87;95.86
74081;SHT31;62438;52.228;6.864;2023-04-07T09:15:30;8.95;96.40
74081;SHT31;62438;52.228;6.864;2023-04-07T09:17:31;8.81;96.40
74081;SHT31;62438;52.228;6.864;2023-04-07T09:19:32;8.75;95.68
74081;SHT31;62438;52.228;6.864;2023-04-07T09:21:46;8.85;94.79
74081;SHT31;62438;52.228;6.864;2023-04-07T09:23:48;8.75;95.83
74081;SHT31;62438;52.228;6.864;2023-04-07T09:25:49;8.91;95.42
74081;SHT31;62438;52.228;6.864;2023-04-07T09:27:59;8.77;95.10
74081;SHT31;62438;52.228;6.864;2023-04-07T09:30:10;8.73;96.33
74081;SHT31;62438;52.228;6.864;2023-04-07T09:32:10;8.71;96.57
74081;SHT31;62438;52.228;6.864;2023-04-07T09:34:26;8.74;96.03
74081;SHT31;62438;52.228;6.864;2023-04-07T09:36:28;8.70;95.14
74081;SHT31;62438;52.228;6.864;2023-04-07T09:38:43;8.70;95.90
74081;SHT31;62438;52.228;6.864;2023-04-07T09:40:43;8.87;96.68
74081;SHT31;62438;52.228;6.864;2023-04-07T09:42:45;8.84;95.12
74081;SHT31;62438;52.228;6.864;2023-04-07T09:44:45;8.85;95.27
74081;SHT31;62438;52.228;6.864;2023-04-07T09:46:56;8.98;95.14
74081;SHT31;62438;52.228;6.864;2023-04-07T09:49:03;8.97;96.09
74081;SHT31;62438;52.228;6.864;2023-04-07T09:51:12;9.15;95.74
74081;SHT31;62438;52.228;6.864;2023-04-07T09:53:13;9.12;95.26
74081;SHT31;62438;52.228;6.864;2023-04-07T09:55:13;9.15;95.10
74081;SHT31;62438;52.228;6.864;2023-04-07T09:57:15;9.01;94.24
74081;SHT31;62438;52.228;6.864;2023-04-07T09:59:17;9.16;94.66
74081;SHT31;62438;52.228;6.864;2023-04-07T10:01:19;9.19;95.00
74081;SHT31;62438;52.228;6.864;2023-04-07T10:03:20;9.29;93.56
74081;SHT31;62438;52.228;6.864;2023-04-07T10:05:21;9.26;95.00
74081;SHT31;62438;52.228;6.864;2023-04-07T10:07:21;9.28;93.42
74081;SHT31;62438;52.228;6.864;2023-04-07T10:09:23;9.25;93.98
74081;SHT31;62438;52.228;6.864;2023-04-07T10:11:24;9.42;93.35
74081;SHT31;62438;52.228;6.864;2023-04-07T10:13:25;9.31;92.64
74081;SHT31;62438;52.228;6.864;2023-04-07T10:15:26;9.28;93.38
74081;SHT31;62438;52.228;6.864;2023-04-07T10:17:27;9.25;93.85
74081;SHT31;62438;52.228;6.864;2023-04-07T10:19:31;9.25;93.78
74081;SHT31;62438;52.228;6.864;2023-04-07T10:21:39;9.19;93.60
74081;SHT31;62438;52.228;6.864;2023-04-07T10:24:04;9.23;94.61
74081;SHT31;62438;52.228;6.864;2023-04-07T10:26:08;9.07;93.30
74081;SHT31;62438;52.228;6.864;2023-04-07T10:28:11;9.21;94.39
74081;SHT31;62438;52.228;6.864;2023-04-07T10:30:17;9.12;94.00
74081;SHT31;62438;52.228;6.864;2023-04-07T10:32:19;9.11;92.99
74081;SHT31;62438;52.228;6.864;2023-04-07T10:37:13;8.94;95.11
74081;SHT31;62438;52.228;6.864;2023-04-07T10:43:40;9.18;95.51
74081;SHT31;62438;52.228;6.864;2023-04-07T10:52:23;8.88;94.95
74081;SHT31;62438;52.228;6.864;2023-04-07T10:54:23;8.92;95.53
74081;SHT31;62438;52.228;6.864;2023-04-07T10:56:25;9.11;95.65
74081;SHT31;62438;52.228;6.864;2023-04-07T10:58:28;9.19;95.59
74081;SHT31;62438;52.228;6.864;2023-04-07T11:00:28;9.15;95.08
74081;SHT31;62438;52.228;6.864;2023-04-07T11:02:29;9.19;94.55
74081;SHT31;62438;52.228;6.864;2023-04-07T11:04:37;9.21;94.60
74081;SHT31;62438;52.228;6.864;2023-04-07T11:06:46;9.10;95.08
74081;SHT31;62438;52.228;6.864;2023-04-07T11:08:47;8.95;95.11
74081;SHT31;62438;52.228;6.864;2023-04-07T11:10:48;8.87;95.08
74081;SHT31;62438;52.228;6.864;2023-04-07T11:13:06;8.81;95.98
74081;SHT31;62438;52.228;6.864;2023-04-07T11:15:19;8.94;96.20
74081;SHT31;62438;52.228;6.864;2023-04-07T11:17:21;8.98;94.35
74081;SHT31;62438;52.228;6.864;2023-04-07T11:19:21;8.92;94.45
74081;SHT31;62438;52.228;6.864;2023-04-07T11:21:22;8.98;96.13
74081;SHT31;62438;52.228;6.864;2023-04-07T11:23:24;8.98;95.69
74081;SHT31;62438;52.228;6.864;2023-04-07T11:25:24;8.89;95.77
74081;SHT31;62438;52.228;6.864;2023-04-07T11:27:28;9.01;94.94
74081;SHT31;62438;52.228;6.864;2023-04-07T11:29:29;9.01;96.21
74081;SHT31;62438;52.228;6.864;2023-04-07T11:31:30;9.10;96.04
74081;SHT31;62438;52.228;6.864;2023-04-07T11:33:31;9.18;96.64
74081;SHT31;62438;52.228;6.864;2023-04-07T11:35:34;9.26;94.79
74081;SHT31;62438;52.228;6.864;2023-04-07T11:37:34;9.43;94.92
74081;SHT31;62438;52.228;6.864;2023-04-07T11:39:35;9.36;93.78
74081;SHT31;62438;52.228;6.864;2023-04-07T11:41:45;9.26;93.81
74081;SHT31;62438;52.228;6.864;2023-04-07T11:43:46;9.28;96.06
74081;SHT31;62438;52.228;6.864;2023-04-07T11:46:02;9.15;95.09
74081;SHT31;62438;52.228;6.864;2023-04-07T11:48:03;9.02;94.22
74081;SHT31;62438;52.228;6.864;2023-04-07T11:50:05;9.14;95.22
74081;SHT31;62438;52.228;6.864;2023-04-07T11:52:07;9.19;94.47
74081;SHT31;62438;52.228;6.864;2023-04-07T11:57:04;9.36;93.85
74081;SHT31;62438;52.228;6.864;2023-04-07T11:59:05;9.22;94.06
74081;SHT31;62438;52.228;6.864;2023-04-07T12:01:06;9.23;93.87
74081;SHT31;62438;52.228;6.864;2023-04-07T12:03:11;9.23;93.94
74081;SHT31;62438;52.228;6.864;2023-04-07T12:05:15;9.38;93.54
74081;SHT31;62438;52.228;6.864;2023-04-07T12:07:18;9.63;93.99
74081;SHT31;62438;52.228;6.864;2023-04-07T12:09:30;9.60;93.54
74081;SHT31;62438;52.228;6.864;2023-04-07T12:11:32;9.91;91.80
74081;SHT31;62438;52.228;6.864;2023-04-07T12:13:33;9.84;93.11
74081;SHT31;62438;52.228;6.864;2023-04-07T12:15:36;9.77;92.89
74081;SHT31;62438;52.228;6.864;2023-04-07T13:49:50;10.48;85.35
74081;SHT31;62438;52.228;6.864;2023-04-07T13:51:51;10.44;85.32
74081;SHT31;62438;52.228;6.864;2023-04-07T13:53:51;10.51;83.88
74081;SHT31;62438;52.228;6.864;2023-04-07T13:55:52;10.51;84.47
74081;SHT31;62438;52.228;6.864;2023-04-07T13:57:52;10.48;84.39
74081;SHT31;62438;52.228;6.864;2023-04-07T13:59:52;10.46;85.27
74081;SHT31;62438;52.228;6.864;2023-04-07T14:01:53;10.62;86.00
74081;SHT31;62438;52.228;6.864;2023-04-07T14:03:53;10.66;84.91
74081;SHT31;62438;52.228;6.864;2023-04-07T14:05:54;10.56;83.25
74081;SHT31;62438;52.228;6.864;2023-04-07T14:07:59;10.63;83.99
74081;SHT31;62438;52.228;6.864;2023-04-07T14:10:00;10.49;84.66
74081;SHT31;62438;52.228;6.864;2023-04-07T14:12:00;10.59;84.69
74081;SHT31;62438;52.228;6.864;2023-04-07T14:14:00;10.62;84.69
74081;SHT31;62438;52.228;6.864;2023-04-07T14:16:01;10.62;85.14
74081;SHT31;62438;52.228;6.864;2023-04-07T14:18:01;10.42;85.19
74081;SHT31;62438;52.228;6.864;2023-04-07T14:20:02;10.39;86.30
74081;SHT31;62438;52.228;6.864;2023-04-07T14:22:03;10.34;86.33
74081;SHT31;62438;52.228;6.864;2023-04-07T14:24:06;10.34;86.33
74081;SHT31;62438;52.228;6.864;2023-04-07T14:26:10;10.28;86.80
74081;SHT31;62438;52.228;6.864;2023-04-07T14:28:11;10.35;85.99
74081;SHT31;62438;52.228;6.864;2023-04-07T14:30:12;10.37;87.21
74081;SHT31;62438;52.228;6.864;2023-04-07T14:32:12;10.31;84.74
74081;SHT31;62438;52.228;6.864;2023-04-07T14:34:13;10.39;84.72
74081;SHT31;62438;52.228;6.864;2023-04-07T14:36:14;10.56;83.28
74081;SHT31;62438;52.228;6.864;2023-04-07T14:38:15;10.44;82.90
74081;SHT31;62438;52.228;6.864;2023-04-07T14:40:16;10.35;83.16
74081;SHT31;62438;52.228;6.864;2023-04-07T14:42:16;10.59;84.63
74081;SHT31;62438;52.228;6.864;2023-04-07T14:44:17;10.59;83.31
74081;SHT31;62438;52.228;6.864;2023-04-07T14:46:17;10.62;83.33
74081;SHT31;62438;52.228;6.864;2023-04-07T14:48:21;10.76;81.75
74081;SHT31;62438;52.228;6.864;2023-04-07T14:50:21;10.76;80.66
74081;SHT31;62438;52.228;6.864;2023-04-07T14:52:22;10.70;82.21
74081;SHT31;62438;52.228;6.864;2023-04-07T14:54:23;10.79;82.87